createdAt,value
2019-05-10T00:00:03.215Z,93.9941
2019-05-10T00:00:13.075Z,93.7866
2019-05-10T00:00:22.769Z,93.5852
2019-05-10T00:00:32.490Z,93.6829
2019-05-10T00:00:42.135Z,93.6829
2019-05-10T00:00:51.799Z,93.7866
2019-05-10T00:01:02.656Z,93.8904
2019-05-10T00:01:11.181Z,93.9941
2019-05-10T00:01:23.026Z,93.9941
2019-05-10T00:01:31.282Z,93.7866
2019-05-10T00:01:41.660Z,93.6829
2019-05-10T00:01:51.348Z,93.6829
2019-05-10T00:02:04.270Z,93.6829
2019-05-10T00:02:13.277Z,93.7866
2019-05-10T00:02:22.959Z,93.5852
2019-05-10T00:02:32.657Z,93.3777
2019-05-10T00:02:43.351Z,93.1702
2019-05-10T00:02:53.037Z,93.0664
2019-05-10T00:03:02.686Z,93.0664
2019-05-10T00:03:12.417Z,92.9688
2019-05-10T00:03:22.131Z,93.0664
2019-05-10T00:03:32.797Z,93.0664
2019-05-10T00:03:42.449Z,93.0664
2019-05-10T00:03:53.269Z,92.8650
2019-05-10T00:04:02.985Z,92.7612
2019-05-10T00:04:11.667Z,92.6575
2019-05-10T00:04:21.358Z,92.7612
2019-05-10T00:04:32.234Z,92.8650
2019-05-10T00:04:41.937Z,92.9688
2019-05-10T00:04:51.605Z,92.8650
2019-05-10T00:05:01.378Z,92.8650
2019-05-10T00:05:13.235Z,92.9688
2019-05-10T00:05:21.927Z,92.8650
2019-05-10T00:05:31.589Z,92.4561
2019-05-10T00:05:41.278Z,92.0410
2019-05-10T00:05:53.121Z,92.0410
2019-05-10T00:06:02.779Z,92.1448
2019-05-10T00:06:12.601Z,92.0410
2019-05-10T00:06:21.197Z,92.0410
2019-05-10T00:06:33.016Z,92.1448
2019-05-10T00:06:42.705Z,92.3523
2019-05-10T00:06:52.377Z,92.4561
2019-05-10T00:07:02.086Z,92.5537
2019-05-10T00:07:11.749Z,92.5110
2019-05-10T00:07:21.476Z,92.3523
2019-05-10T00:07:33.310Z,91.9434
2019-05-10T00:07:43.144Z,91.5283
2019-05-10T00:07:58.276Z,91.4246
2019-05-10T00:08:02.929Z,91.4856
2019-05-10T00:08:12.611Z,91.4856
2019-05-10T00:08:22.335Z,91.3818
2019-05-10T00:08:31.991Z,91.1804
2019-05-10T00:08:41.727Z,91.0767
2019-05-10T00:08:51.409Z,91.1804
2019-05-10T00:09:02.071Z,91.3818
2019-05-10T00:09:11.743Z,91.5894
2019-05-10T00:09:21.421Z,91.6931
2019-05-10T00:09:32.225Z,91.9006
2019-05-10T00:09:42.066Z,92.1021
2019-05-10T00:09:51.698Z,92.3096
2019-05-10T00:10:01.351Z,92.3096
2019-05-10T00:10:14.279Z,92.4133
2019-05-10T00:10:23.068Z,92.4133
2019-05-10T00:10:32.753Z,92.5110
2019-05-10T00:10:42.385Z,92.6147
2019-05-10T00:10:52.035Z,92.6147
2019-05-10T00:11:01.665Z,92.7185
2019-05-10T00:11:14.114Z,92.8223
2019-05-10T00:11:21.622Z,92.8650
2019-05-10T00:11:31.276Z,93.0664
2019-05-10T00:11:41.917Z,93.1702
2019-05-10T00:11:57.149Z,93.2739
2019-05-10T00:12:01.856Z,93.2739
2019-05-10T00:12:11.517Z,93.2739
2019-05-10T00:12:22.281Z,93.3777
2019-05-10T00:12:41.953Z,93.2739
2019-05-10T00:12:51.640Z,93.1702
2019-05-10T00:13:01.299Z,93.2739
2019-05-10T00:13:12.164Z,93.2739
2019-05-10T00:13:21.824Z,93.3777
2019-05-10T00:13:31.488Z,93.5852
2019-05-10T00:13:41.323Z,93.7866
2019-05-10T00:13:54.183Z,93.9941
2019-05-10T00:14:01.642Z,94.0979
2019-05-10T00:14:12.274Z,94.0979
2019-05-10T00:14:21.944Z,94.1956
2019-05-10T00:14:31.664Z,94.1956
2019-05-10T00:14:44.711Z,94.1956
2019-05-10T00:14:52.764Z,94.1956
2019-05-10T00:15:02.417Z,94.1956
2019-05-10T00:15:12.078Z,94.1956
2019-05-10T00:15:21.726Z,94.2444
2019-05-10T00:15:31.368Z,94.2444
2019-05-10T00:15:43.238Z,94.1406
2019-05-10T00:15:52.906Z,94.1406
2019-05-10T00:16:02.576Z,93.9331
2019-05-10T00:16:12.216Z,93.8293
2019-05-10T00:16:23.147Z,93.8293
2019-05-10T00:16:32.818Z,94.0369
2019-05-10T00:16:42.478Z,94.1406
2019-05-10T00:16:53.317Z,94.1406
2019-05-10T00:17:03.052Z,94.0369
2019-05-10T00:17:12.762Z,94.0369
2019-05-10T00:17:43.018Z,93.8293
2019-05-10T00:17:52.666Z,93.8293
2019-05-10T00:18:02.289Z,93.9331
2019-05-10T00:18:12.956Z,93.9331
2019-05-10T00:18:22.618Z,94.0369
2019-05-10T00:18:32.307Z,94.1406
2019-05-10T00:18:42.966Z,94.2444
2019-05-10T00:18:52.648Z,94.2444
2019-05-10T00:19:02.339Z,94.2444
2019-05-10T00:19:11.986Z,94.2444
2019-05-10T00:19:21.686Z,94.1406
2019-05-10T00:19:31.346Z,93.9331
2019-05-10T00:19:43.169Z,93.8293
2019-05-10T00:19:52.837Z,93.9331
2019-05-10T00:20:01.496Z,93.9331
2019-05-10T00:20:11.197Z,93.6279
2019-05-10T00:20:23.130Z,93.4204
2019-05-10T00:20:32.816Z,93.3167
2019-05-10T00:20:42.476Z,93.3777
2019-05-10T00:20:52.126Z,93.6279
2019-05-10T00:21:01.758Z,93.6829
2019-05-10T00:21:11.427Z,93.7866
2019-05-10T00:21:32.981Z,93.2739
2019-05-10T00:21:42.646Z,93.0664
2019-05-10T00:21:53.306Z,92.9688
2019-05-10T00:22:02.979Z,92.8650
2019-05-10T00:22:11.529Z,92.9688
2019-05-10T00:22:23.337Z,93.1702
2019-05-10T00:22:33.019Z,93.3777
2019-05-10T00:22:42.718Z,93.5852
2019-05-10T00:22:52.418Z,93.6829
2019-05-10T00:23:02.096Z,93.6829
2019-05-10T00:23:11.746Z,93.7866
2019-05-10T00:23:21.433Z,93.8904
2019-05-10T00:23:32.106Z,93.8904
2019-05-10T00:23:41.778Z,93.7866
2019-05-10T00:23:51.436Z,93.7866
2019-05-10T00:24:02.251Z,93.7866
2019-05-10T00:24:11.967Z,93.7866
2019-05-10T00:24:22.837Z,93.7256
2019-05-10T00:24:32.530Z,93.5852
2019-05-10T00:24:42.207Z,93.5852
2019-05-10T00:25:03.685Z,93.4814
2019-05-10T00:25:05.786Z,93.4814
2019-05-10T00:25:18.731Z,93.6829
2019-05-10T00:25:21.262Z,93.6829
2019-05-10T00:25:31.568Z,93.8293
2019-05-10T00:25:41.248Z,93.9331
2019-05-10T00:25:52.018Z,94.0369
2019-05-10T00:26:01.650Z,94.0369
2019-05-10T00:26:11.286Z,94.0369
2019-05-10T00:26:23.123Z,94.1406
2019-05-10T00:26:42.062Z,94.1406
2019-05-10T00:26:51.730Z,94.2444
2019-05-10T00:27:01.391Z,94.2444
2019-05-10T00:27:13.230Z,94.2444
2019-05-10T00:27:22.882Z,94.0369
2019-05-10T00:27:32.522Z,93.8293
2019-05-10T00:27:42.180Z,93.5242
2019-05-10T00:27:51.834Z,93.5242
2019-05-10T00:28:01.512Z,93.5242
2019-05-10T00:28:11.178Z,93.5242
2019-05-10T00:28:21.810Z,93.5242
2019-05-10T00:28:31.480Z,93.6279
2019-05-10T00:28:43.310Z,93.7256
2019-05-10T00:28:53.266Z,93.8293
2019-05-10T00:29:02.930Z,93.9331
2019-05-10T00:29:12.597Z,94.0369
2019-05-10T00:29:22.260Z,94.1406
2019-05-10T00:29:31.914Z,94.2444
2019-05-10T00:29:41.592Z,94.2444
2019-05-10T00:30:03.362Z,94.2444
2019-05-10T00:30:12.011Z,94.3420
2019-05-10T00:30:21.681Z,94.3420
2019-05-10T00:30:31.420Z,94.3420
2019-05-10T00:30:43.282Z,94.4458
2019-05-10T00:30:53.914Z,94.5496
2019-05-10T00:31:01.431Z,94.5496
2019-05-10T00:31:13.303Z,94.5496
2019-05-10T00:31:22.981Z,94.3420
2019-05-10T00:31:31.265Z,94.2444
2019-05-10T00:31:41.770Z,94.0369
2019-05-10T00:31:51.452Z,93.9331
2019-05-10T00:32:03.303Z,93.8293
2019-05-10T00:32:14.920Z,93.7256
2019-05-10T00:32:22.420Z,93.7256
2019-05-10T00:32:32.077Z,93.7256
2019-05-10T00:32:41.782Z,93.7256
2019-05-10T00:32:51.426Z,93.7256
2019-05-10T00:33:03.283Z,93.7256
2019-05-10T00:33:11.780Z,93.8293
2019-05-10T00:33:21.410Z,93.9331
2019-05-10T00:33:32.323Z,94.1406
2019-05-10T00:33:42.020Z,94.2444
2019-05-10T00:33:51.690Z,94.4458
2019-05-10T00:34:01.344Z,94.5496
2019-05-10T00:34:13.210Z,94.6533
2019-05-10T00:34:21.714Z,94.6533
2019-05-10T00:34:31.382Z,94.7571
2019-05-10T00:34:43.264Z,94.8547
2019-05-10T00:34:52.952Z,94.8547
2019-05-10T00:35:08.048Z,94.9585
2019-05-10T00:35:12.760Z,94.9585
2019-05-10T00:35:22.407Z,94.9585
2019-05-10T00:35:32.050Z,95.0623
2019-05-10T00:35:53.170Z,95.2698
2019-05-10T00:36:02.809Z,95.2698
2019-05-10T00:36:12.496Z,95.3735
2019-05-10T00:36:22.168Z,95.2698
2019-05-10T00:36:37.804Z,95.0623
2019-05-10T00:36:51.786Z,94.5496
2019-05-10T00:37:01.469Z,94.2444
2019-05-10T00:37:13.313Z,94.0369
2019-05-10T00:37:22.988Z,94.1406
2019-05-10T00:37:32.640Z,94.2444
2019-05-10T00:37:42.569Z,94.4458
2019-05-10T00:37:52.216Z,94.5496
2019-05-10T00:38:01.873Z,94.7571
2019-05-10T00:38:11.532Z,94.8547
2019-05-10T00:38:21.210Z,94.8547
2019-05-10T00:38:31.887Z,94.8547
2019-05-10T00:38:41.550Z,94.7571
2019-05-10T00:38:51.200Z,94.7571
2019-05-10T00:39:03.029Z,94.7571
2019-05-10T00:39:12.707Z,94.7571
2019-05-10T00:39:21.377Z,94.6533
2019-05-10T00:39:31.963Z,94.4458
2019-05-10T00:39:41.616Z,94.3420
2019-05-10T00:39:51.326Z,94.1406
2019-05-10T00:40:03.145Z,94.0369
2019-05-10T00:40:12.807Z,94.0369
2019-05-10T00:40:25.761Z,93.5242
2019-05-10T00:40:33.622Z,93.2129
2019-05-10T00:40:43.259Z,92.9688
2019-05-10T00:40:51.939Z,92.7612
2019-05-10T00:41:01.617Z,92.8650
2019-05-10T00:41:11.289Z,93.0664
2019-05-10T00:41:21.929Z,93.3777
2019-05-10T00:41:32.565Z,93.5852
2019-05-10T00:41:42.243Z,93.4814
2019-05-10T00:41:51.945Z,93.4814
2019-05-10T00:42:02.805Z,93.4814
2019-05-10T00:42:12.475Z,93.5852
2019-05-10T00:42:22.155Z,93.6829
2019-05-10T00:42:31.862Z,93.7866
2019-05-10T00:42:42.625Z,93.7866
2019-05-10T00:42:52.305Z,93.4814
2019-05-10T00:43:02.995Z,93.1702
2019-05-10T00:43:11.788Z,92.9688
2019-05-10T00:43:21.779Z,92.8650
2019-05-10T00:43:31.489Z,92.8650
2019-05-10T00:43:43.308Z,92.8650
2019-05-10T00:43:52.971Z,92.8650
2019-05-10T00:44:11.420Z,92.9688
2019-05-10T00:44:23.255Z,92.9688
2019-05-10T00:44:31.727Z,92.8650
2019-05-10T00:44:41.380Z,92.8650
2019-05-10T00:44:53.209Z,92.9688
2019-05-10T00:45:02.893Z,93.1702
2019-05-10T00:45:21.521Z,93.1702
2019-05-10T00:45:31.209Z,92.9688
2019-05-10T00:45:43.258Z,92.8650
2019-05-10T00:45:52.899Z,92.8650
2019-05-10T00:46:02.577Z,92.8650
2019-05-10T00:46:12.225Z,93.0664
2019-05-10T00:46:21.979Z,93.1702
2019-05-10T00:46:32.705Z,93.1702
2019-05-10T00:46:42.377Z,93.2739
2019-05-10T00:46:52.092Z,93.4814
2019-05-10T00:47:01.786Z,93.5852
2019-05-10T00:47:11.509Z,93.4814
2019-05-10T00:47:23.327Z,93.3777
2019-05-10T00:47:32.979Z,93.4814
2019-05-10T00:47:42.639Z,93.5852
2019-05-10T00:47:53.295Z,93.6829
2019-05-10T00:48:11.655Z,93.6829
2019-05-10T00:48:21.327Z,93.6829
2019-05-10T00:48:33.145Z,93.6829
2019-05-10T00:48:42.835Z,93.8904
2019-05-10T00:48:52.510Z,93.9941
2019-05-10T00:49:02.189Z,93.9941
2019-05-10T00:49:11.867Z,93.9941
2019-05-10T00:49:21.538Z,93.8904
2019-05-10T00:49:31.225Z,93.8904
2019-05-10T00:49:43.041Z,93.8904
2019-05-10T00:49:52.725Z,93.8904
2019-05-10T00:50:02.358Z,93.9941
2019-05-10T00:50:13.064Z,94.0979
2019-05-10T00:50:22.749Z,94.2993
2019-05-10T00:50:32.459Z,94.4031
2019-05-10T00:50:42.135Z,94.4031
2019-05-10T00:50:51.805Z,94.5068
2019-05-10T00:51:01.470Z,94.5068
2019-05-10T00:51:13.312Z,94.5068
2019-05-10T00:51:22.967Z,94.5068
2019-05-10T00:51:32.629Z,94.6106
2019-05-10T00:51:42.278Z,94.7083
2019-05-10T00:51:51.972Z,94.8120
2019-05-10T00:52:02.658Z,95.0195
2019-05-10T00:52:12.676Z,95.1233
2019-05-10T00:52:22.358Z,94.9158
2019-05-10T00:52:32.075Z,94.7083
2019-05-10T00:52:42.735Z,94.2993
2019-05-10T00:52:52.440Z,94.0979
2019-05-10T00:53:02.114Z,94.1956
2019-05-10T00:53:11.759Z,94.1956
2019-05-10T00:53:21.425Z,94.1956
2019-05-10T00:53:33.358Z,94.4031
2019-05-10T00:53:43.017Z,94.5068
2019-05-10T00:53:52.689Z,94.6106
2019-05-10T00:54:02.330Z,94.7083
2019-05-10T00:54:12.029Z,94.9158
2019-05-10T00:54:21.842Z,94.9158
2019-05-10T00:54:32.826Z,94.9158
2019-05-10T00:54:42.502Z,95.1233
2019-05-10T00:54:52.187Z,95.2271
2019-05-10T00:55:16.691Z,95.3247
2019-05-10T00:55:19.006Z,95.3247
2019-05-10T00:55:22.861Z,95.4285
2019-05-10T00:55:32.525Z,95.6360
2019-05-10T00:55:43.169Z,95.8374
2019-05-10T00:55:53.421Z,96.0449
2019-05-10T00:56:03.755Z,96.0449
2019-05-10T00:56:11.270Z,96.0449
2019-05-10T00:56:21.596Z,96.1487
2019-05-10T00:56:31.239Z,96.1487
2019-05-10T00:56:44.110Z,96.2524
2019-05-10T00:56:52.787Z,96.2524
2019-05-10T00:57:02.506Z,96.2524
2019-05-10T00:57:12.145Z,96.2524
2019-05-10T00:57:23.116Z,96.2524
2019-05-10T00:57:32.782Z,96.2524
2019-05-10T00:57:49.913Z,96.1487
2019-05-10T00:57:52.922Z,96.1487
2019-05-10T00:58:03.480Z,96.0449
2019-05-10T00:58:14.169Z,95.9412
2019-05-10T00:58:21.654Z,96.1487
2019-05-10T00:58:31.293Z,96.2524
2019-05-10T00:58:41.969Z,96.3989
2019-05-10T00:58:51.613Z,96.5027
2019-05-10T00:59:01.289Z,96.7041
2019-05-10T00:59:13.203Z,96.9116
2019-05-10T00:59:22.859Z,97.0154
2019-05-10T00:59:31.960Z,97.0154
2019-05-10T00:59:41.623Z,97.0154
2019-05-10T01:00:02.993Z,97.2168
2019-05-10T01:00:11.692Z,97.2168
2019-05-10T01:00:21.350Z,97.3206
2019-05-10T01:00:33.186Z,97.3206
2019-05-10T01:00:42.836Z,97.4243
2019-05-10T01:00:52.502Z,97.4243
2019-05-10T01:01:01.164Z,97.5281
2019-05-10T01:01:11.806Z,97.6318
2019-05-10T01:01:22.457Z,97.7295
2019-05-10T01:01:33.156Z,97.8333
2019-05-10T01:01:42.803Z,97.9370
2019-05-10T01:01:52.491Z,98.0408
2019-05-10T01:02:02.154Z,97.9370
2019-05-10T01:02:12.864Z,97.9370
2019-05-10T01:02:21.553Z,98.0408
2019-05-10T01:02:31.246Z,97.9370
2019-05-10T01:02:42.086Z,97.8333
2019-05-10T01:02:51.743Z,97.6318
2019-05-10T01:03:01.412Z,97.6318
2019-05-10T01:03:12.052Z,97.6318
2019-05-10T01:03:22.929Z,97.6318
2019-05-10T01:03:32.632Z,97.6318
2019-05-10T01:03:42.291Z,97.7295
2019-05-10T01:03:52.015Z,97.7295
2019-05-10T01:04:01.823Z,97.8333
2019-05-10T01:04:11.526Z,98.0408
2019-05-10T01:04:21.223Z,98.0408
2019-05-10T01:04:33.087Z,98.0835
2019-05-10T01:04:42.756Z,97.9858
2019-05-10T01:04:52.486Z,97.9858
2019-05-10T01:05:02.417Z,98.0835
2019-05-10T01:05:12.072Z,98.1873
2019-05-10T01:05:22.588Z,98.2910
2019-05-10T01:05:32.246Z,98.2910
2019-05-10T01:05:41.940Z,98.3948
2019-05-10T01:05:51.628Z,98.3948
2019-05-10T01:06:02.934Z,98.4985
2019-05-10T01:06:11.939Z,98.6023
2019-05-10T01:06:21.558Z,98.6023
2019-05-10T01:06:32.363Z,98.6023
2019-05-10T01:06:42.045Z,98.7000
2019-05-10T01:06:51.741Z,98.7000
2019-05-10T01:07:01.368Z,98.8037
2019-05-10T01:07:13.215Z,98.8037
2019-05-10T01:07:22.883Z,98.9075
2019-05-10T01:07:32.545Z,99.0112
2019-05-10T01:07:42.213Z,99.0112
2019-05-10T01:07:51.863Z,99.0112
2019-05-10T01:08:01.493Z,99.0112
2019-05-10T01:08:13.327Z,99.0112
2019-05-10T01:08:22.967Z,98.9075
2019-05-10T01:08:32.663Z,98.9075
2019-05-10T01:08:42.343Z,98.9075
2019-05-10T01:08:52.038Z,98.9075
2019-05-10T01:09:02.721Z,98.9075
2019-05-10T01:09:12.457Z,98.9075
2019-05-10T01:09:22.095Z,98.8037
2019-05-10T01:09:32.940Z,98.8037
2019-05-10T01:09:41.253Z,98.7000
2019-05-10T01:09:53.077Z,98.6023
2019-05-10T01:10:02.787Z,98.4985
2019-05-10T01:10:11.453Z,98.4985
2019-05-10T01:10:23.334Z,98.4985
2019-05-10T01:10:33.029Z,98.3948
2019-05-10T01:10:42.718Z,98.3948
2019-05-10T01:10:53.428Z,98.3948
2019-05-10T01:11:03.164Z,98.3948
2019-05-10T01:11:11.589Z,98.3948
2019-05-10T01:11:21.559Z,98.4985
2019-05-10T01:11:33.327Z,98.4985
2019-05-10T01:11:43.010Z,98.6023
2019-05-10T01:11:52.710Z,98.7000
2019-05-10T01:12:02.423Z,98.7000
2019-05-10T01:12:12.096Z,98.8037
2019-05-10T01:12:21.734Z,98.9075
2019-05-10T01:12:31.429Z,98.8037
2019-05-10T01:12:43.275Z,98.8037
2019-05-10T01:12:52.926Z,98.8037
2019-05-10T01:13:02.678Z,98.8037
2019-05-10T01:13:12.435Z,98.9075
2019-05-10T01:13:23.125Z,99.0112
2019-05-10T01:13:32.793Z,99.1150
2019-05-10T01:13:42.446Z,99.1150
2019-05-10T01:13:52.105Z,99.1150
2019-05-10T01:14:01.776Z,99.2126
2019-05-10T01:14:11.454Z,99.2126
2019-05-10T01:14:21.189Z,99.3164
2019-05-10T01:14:33.016Z,99.3164
2019-05-10T01:14:57.929Z,99.3164
2019-05-10T01:15:02.407Z,99.5239
2019-05-10T01:15:12.111Z,99.5239
2019-05-10T01:15:21.946Z,99.5239
2019-05-10T01:15:31.606Z,99.6277
2019-05-10T01:15:41.307Z,99.6277
2019-05-10T01:15:53.159Z,99.6277
2019-05-10T01:16:02.818Z,99.7314
2019-05-10T01:16:12.471Z,99.7314
2019-05-10T01:16:22.135Z,99.8291
2019-05-10T01:16:31.917Z,99.9329
2019-05-10T01:16:41.587Z,99.9329
2019-05-10T01:16:51.339Z,99.9329
2019-05-10T01:17:02.167Z,99.9329
2019-05-10T01:17:12.663Z,99.9329
2019-05-10T01:17:22.367Z,99.9939
2019-05-10T01:17:32.078Z,99.9939
2019-05-10T01:17:41.784Z,99.9939
2019-05-10T01:17:52.651Z,99.9939
2019-05-10T01:18:02.368Z,99.9939
2019-05-10T01:18:12.063Z,99.9939
2019-05-10T01:18:21.771Z,99.9939
2019-05-10T01:18:31.450Z,99.9939
2019-05-10T01:18:43.283Z,99.9939
2019-05-10T01:18:51.805Z,99.9939
2019-05-10T01:19:12.303Z,99.9939
2019-05-10T01:19:22.129Z,99.9939
2019-05-10T01:19:31.988Z,99.9939
2019-05-10T01:19:41.647Z,99.9939
2019-05-10T01:19:51.319Z,99.9939
2019-05-10T01:20:11.639Z,99.9939
2019-05-10T01:20:21.373Z,99.9939
2019-05-10T01:20:33.197Z,99.9939
2019-05-10T01:20:42.963Z,99.9939
2019-05-10T01:20:51.924Z,99.9939
2019-05-10T01:21:02.891Z,99.9939
2019-05-10T01:21:12.559Z,99.9939
2019-05-10T01:21:22.235Z,99.9939
2019-05-10T01:21:31.917Z,99.9939
2019-05-10T01:21:41.575Z,99.9939
2019-05-10T01:21:51.288Z,99.9939
2019-05-10T01:22:03.162Z,99.9939
2019-05-10T01:22:12.820Z,99.9939
2019-05-10T01:22:22.601Z,99.9939
2019-05-10T01:22:32.301Z,99.9939
2019-05-10T01:22:41.962Z,99.9939
2019-05-10T01:22:52.602Z,99.9939
2019-05-10T01:23:02.300Z,99.9939
2019-05-10T01:23:11.937Z,99.9939
2019-05-10T01:23:21.601Z,99.9939
2019-05-10T01:23:31.291Z,99.9939
2019-05-10T01:23:43.122Z,99.9939
2019-05-10T01:23:52.812Z,99.9939
2019-05-10T01:24:01.483Z,99.9939
2019-05-10T01:24:12.142Z,99.9939
2019-05-10T01:24:21.829Z,99.9939
2019-05-10T01:24:31.581Z,99.9939
2019-05-10T01:24:41.327Z,99.9939
2019-05-10T01:24:53.167Z,99.9939
2019-05-10T01:25:02.828Z,99.9939
2019-05-10T01:25:12.507Z,99.9939
2019-05-10T01:25:34.443Z,99.9939
2019-05-10T01:25:41.212Z,99.9939
2019-05-10T01:25:53.075Z,99.9939
2019-05-10T01:26:02.759Z,99.9939
2019-05-10T01:26:11.430Z,99.9939
2019-05-10T01:26:23.267Z,99.9939
2019-05-10T01:26:32.937Z,99.9939
2019-05-10T01:26:42.611Z,99.9939
2019-05-10T01:26:52.359Z,99.9939
2019-05-10T01:27:03.304Z,99.9939
2019-05-10T01:27:13.007Z,99.9939
2019-05-10T01:27:31.633Z,99.9939
2019-05-10T01:27:41.311Z,99.9939
2019-05-10T01:28:01.898Z,99.9939
2019-05-10T01:28:11.583Z,99.9939
2019-05-10T01:28:21.255Z,99.9939
2019-05-10T01:28:33.083Z,99.9939
2019-05-10T01:28:42.901Z,99.9939
2019-05-10T01:28:53.476Z,99.9939
2019-05-10T01:29:03.177Z,99.9939
2019-05-10T01:29:12.837Z,99.9939
2019-05-10T01:29:22.507Z,99.9939
2019-05-10T01:29:42.431Z,99.9939
2019-05-10T01:29:52.961Z,99.9939
2019-05-10T01:30:01.493Z,99.9939
2019-05-10T01:30:13.936Z,99.9939
2019-05-10T01:30:23.394Z,99.9939
2019-05-10T01:30:32.206Z,99.9939
2019-05-10T01:30:41.434Z,99.9939
2019-05-10T01:30:53.309Z,99.9939
2019-05-10T01:31:02.965Z,99.9939
2019-05-10T01:31:12.667Z,99.9939
2019-05-10T01:31:31.265Z,99.9939
2019-05-10T01:31:41.619Z,99.9939
2019-05-10T01:31:52.297Z,99.9939
2019-05-10T01:32:01.435Z,99.9939
2019-05-10T01:32:12.246Z,99.9939
2019-05-10T01:32:21.897Z,99.9939
2019-05-10T01:32:31.538Z,99.9939
2019-05-10T01:32:44.991Z,99.9939
2019-05-10T01:32:52.054Z,99.9939
2019-05-10T01:33:01.252Z,99.9268
2019-05-10T01:33:11.903Z,99.6155
2019-05-10T01:33:21.562Z,99.4080
2019-05-10T01:33:31.196Z,99.4080
2019-05-10T01:33:43.014Z,99.4080
2019-05-10T01:33:52.769Z,99.5117
2019-05-10T01:34:01.425Z,99.5117
2019-05-10T01:34:21.914Z,99.5117
2019-05-10T01:34:31.574Z,99.5117
2019-05-10T01:34:42.425Z,99.4080
2019-05-10T01:34:52.151Z,99.4080
2019-05-10T01:35:01.854Z,99.5117
2019-05-10T01:35:11.523Z,99.5117
2019-05-10T01:35:21.249Z,99.6155
2019-05-10T01:35:33.094Z,99.7192
2019-05-10T01:35:42.744Z,99.8230
2019-05-10T01:35:52.452Z,99.8230
2019-05-10T01:36:02.115Z,99.6155
2019-05-10T01:36:12.983Z,99.4080
2019-05-10T01:36:22.632Z,99.3103
2019-05-10T01:36:32.316Z,99.3103
2019-05-10T01:36:41.982Z,99.3103
2019-05-10T01:36:51.662Z,99.4080
2019-05-10T01:37:01.326Z,99.5117
2019-05-10T01:37:13.185Z,99.6155
2019-05-10T01:37:21.907Z,99.6155
2019-05-10T01:37:31.554Z,99.7192
2019-05-10T01:37:41.244Z,99.8230
2019-05-10T01:37:53.072Z,99.8230
2019-05-10T01:38:01.746Z,99.8230
2019-05-10T01:38:11.409Z,99.8230
2019-05-10T01:38:23.252Z,99.9268
2019-05-10T01:38:31.809Z,99.9268
2019-05-10T01:38:51.432Z,99.9268
2019-05-10T01:39:02.024Z,99.9939
2019-05-10T01:39:12.583Z,99.9939
2019-05-10T01:39:22.262Z,99.9939
2019-05-10T01:39:33.277Z,99.9939
2019-05-10T01:39:41.464Z,99.9939
2019-05-10T01:39:53.928Z,99.9939
2019-05-10T01:40:01.586Z,99.9939
2019-05-10T01:40:11.918Z,99.9939
2019-05-10T01:40:21.586Z,99.9939
2019-05-10T01:40:31.954Z,99.9939
2019-05-10T01:40:41.631Z,99.9939
2019-05-10T01:40:51.356Z,99.9939
2019-05-10T01:41:11.832Z,99.9939
2019-05-10T01:41:21.627Z,99.9939
2019-05-10T01:41:31.263Z,99.9939
2019-05-10T01:41:43.343Z,99.9939
2019-05-10T01:41:53.056Z,99.9939
2019-05-10T01:42:02.755Z,99.9939
2019-05-10T01:42:26.683Z,99.9939
2019-05-10T01:42:31.356Z,99.9939
2019-05-10T01:42:43.157Z,99.9939
2019-05-10T01:42:51.636Z,99.9939
2019-05-10T01:43:01.287Z,99.9939
2019-05-10T01:43:22.971Z,99.9939
2019-05-10T01:43:32.629Z,99.9939
2019-05-10T01:43:42.298Z,99.9939
2019-05-10T01:43:51.941Z,99.9939
2019-05-10T01:44:01.591Z,99.9939
2019-05-10T01:44:11.282Z,99.9939
2019-05-10T01:44:23.120Z,99.9939
2019-05-10T01:44:32.757Z,99.9939
2019-05-10T01:44:42.438Z,99.9939
2019-05-10T01:44:57.555Z,99.9939
2019-05-10T01:45:21.752Z,99.9939
2019-05-10T01:45:31.413Z,99.9939
2019-05-10T01:45:43.222Z,99.9939
2019-05-10T01:45:52.913Z,99.9939
2019-05-10T01:46:01.416Z,99.9939
2019-05-10T01:46:13.223Z,99.9939
2019-05-10T01:46:22.862Z,99.9939
2019-05-10T01:46:32.522Z,99.9939
2019-05-10T01:46:42.196Z,99.9939
2019-05-10T01:46:51.853Z,99.9939
2019-05-10T01:47:01.502Z,99.9939
2019-05-10T01:47:13.336Z,99.9939
2019-05-10T01:47:22.988Z,99.9939
2019-05-10T01:47:32.652Z,99.9939
2019-05-10T01:47:42.314Z,99.9939
2019-05-10T01:47:51.973Z,99.9939
2019-05-10T01:48:01.673Z,99.9939
2019-05-10T01:48:11.343Z,99.9939
2019-05-10T01:48:23.155Z,99.9939
2019-05-10T01:48:32.852Z,99.9939
2019-05-10T01:48:41.355Z,99.9939
2019-05-10T01:48:53.194Z,99.9939
2019-05-10T01:49:02.948Z,99.9939
2019-05-10T01:49:12.631Z,99.9939
2019-05-10T01:49:22.305Z,99.9939
2019-05-10T01:49:32.002Z,99.9939
2019-05-10T01:49:41.666Z,99.9939
2019-05-10T01:49:51.313Z,99.9939
2019-05-10T01:50:03.157Z,99.9939
2019-05-10T01:50:12.844Z,99.9939
2019-05-10T01:50:21.524Z,99.9939
2019-05-10T01:50:31.321Z,99.9939
2019-05-10T01:50:43.157Z,99.9939
2019-05-10T01:50:52.862Z,99.9939
2019-05-10T01:51:08.427Z,99.9939
2019-05-10T01:51:12.902Z,99.9939
2019-05-10T01:51:22.559Z,99.9939
2019-05-10T01:51:32.216Z,99.9939
2019-05-10T01:51:42.867Z,99.9939
2019-05-10T01:52:01.773Z,99.9939
2019-05-10T01:52:12.299Z,99.9939
2019-05-10T01:52:21.982Z,99.9939
2019-05-10T01:52:31.641Z,99.9939
2019-05-10T01:52:41.310Z,99.9939
2019-05-10T01:52:54.122Z,99.9939
2019-05-10T01:53:01.655Z,99.9939
2019-05-10T01:53:11.326Z,99.9939
2019-05-10T01:53:23.189Z,99.9939
2019-05-10T01:53:32.859Z,99.9939
2019-05-10T01:53:42.569Z,99.9939
2019-05-10T01:53:53.259Z,99.9939
2019-05-10T01:54:03.931Z,99.9939
2019-05-10T01:54:11.435Z,99.9939
2019-05-10T01:54:23.289Z,99.9939
2019-05-10T01:54:32.931Z,99.9939
2019-05-10T01:54:42.610Z,99.9939
2019-05-10T01:54:52.277Z,99.9939
2019-05-10T01:55:01.933Z,99.9939
2019-05-10T01:55:11.623Z,99.9939
2019-05-10T01:55:21.296Z,99.9939
2019-05-10T01:55:33.220Z,99.9939
2019-05-10T01:55:51.689Z,99.9939
2019-05-10T01:55:53.204Z,99.9939
2019-05-10T01:56:02.935Z,99.9939
2019-05-10T01:56:12.572Z,99.9939
2019-05-10T01:56:22.239Z,99.9939
2019-05-10T01:56:31.933Z,99.9939
2019-05-10T01:56:41.642Z,99.9939
2019-05-10T01:56:51.349Z,99.9939
2019-05-10T01:57:03.199Z,99.9939
2019-05-10T01:57:12.899Z,99.9939
2019-05-10T01:57:22.595Z,99.9939
2019-05-10T01:57:32.259Z,99.9939
2019-05-10T01:57:41.931Z,99.9939
2019-05-10T01:57:51.651Z,99.9939
2019-05-10T01:58:01.528Z,99.9939
2019-05-10T01:58:11.203Z,99.9939
2019-05-10T01:58:23.072Z,99.9939
2019-05-10T01:58:32.729Z,99.9939
2019-05-10T01:58:41.414Z,99.9939
2019-05-10T01:58:53.222Z,99.9939
2019-05-10T01:59:02.944Z,99.9939
2019-05-10T01:59:12.643Z,99.9939
2019-05-10T01:59:21.220Z,99.9939
2019-05-10T01:59:33.062Z,99.9939
2019-05-10T01:59:42.817Z,99.9939
2019-05-10T01:59:52.529Z,99.9939
2019-05-10T02:00:02.232Z,99.9939
2019-05-10T02:00:11.893Z,99.9939
2019-05-10T02:00:21.575Z,99.9939
2019-05-10T02:00:36.220Z,99.9939
2019-05-10T02:00:41.564Z,99.9939
2019-05-10T02:00:51.249Z,99.9939
2019-05-10T02:01:03.272Z,99.9939
2019-05-10T02:01:12.024Z,99.9939
2019-05-10T02:01:22.001Z,99.9939
2019-05-10T02:01:32.901Z,99.9939
2019-05-10T02:01:42.594Z,99.9939
2019-05-10T02:01:52.368Z,99.9939
2019-05-10T02:02:02.065Z,99.9939
2019-05-10T02:02:22.640Z,99.9939
2019-05-10T02:02:33.323Z,99.9939
2019-05-10T02:02:43.010Z,99.9939
2019-05-10T02:02:52.694Z,99.9939
2019-05-10T02:03:02.405Z,99.9939
2019-05-10T02:03:12.093Z,99.9939
2019-05-10T02:03:22.989Z,99.9939
2019-05-10T02:03:32.763Z,99.9939
2019-05-10T02:03:42.401Z,99.9939
2019-05-10T02:03:52.051Z,99.9939
2019-05-10T02:04:03.069Z,99.9939
2019-05-10T02:04:12.780Z,99.9939
2019-05-10T02:04:21.504Z,99.9939
2019-05-10T02:04:32.190Z,99.9939
2019-05-10T02:04:41.862Z,99.9939
2019-05-10T02:04:51.561Z,99.9939
2019-05-10T02:05:01.269Z,99.9939
2019-05-10T02:05:13.170Z,99.9939
2019-05-10T02:05:22.862Z,99.9939
2019-05-10T02:05:32.519Z,99.9939
2019-05-10T02:05:42.210Z,99.9939